createdAt,value
2018-06-15T00:02:28.753Z,12.70
2018-06-15T00:04:58.078Z,15.50
2018-06-15T00:07:27.510Z,16.30
2018-06-15T00:09:57.108Z,11.87
2018-06-15T00:12:27.628Z,15.90
2018-06-15T00:14:57.396Z,12.70
2018-06-15T00:17:27.981Z,14.83
2018-06-15T00:19:57.257Z,10.63
2018-06-15T00:22:26.479Z,13.20
2018-06-15T00:24:55.866Z,16.27
2018-06-15T00:27:25.102Z,19.43
2018-06-15T00:29:55.054Z,12.23
2018-06-15T00:32:24.436Z,9.37
2018-06-15T00:34:54.998Z,14.70
2018-06-15T00:37:24.323Z,11.27
2018-06-15T00:39:53.973Z,19.20
2018-06-15T00:42:23.698Z,13.23
2018-06-15T00:44:53.822Z,10.93
2018-06-15T00:47:24.303Z,14.30
2018-06-15T00:49:53.983Z,12.70
2018-06-15T00:52:23.495Z,11.17
2018-06-15T00:54:53.367Z,20.53
2018-06-15T00:57:47.489Z,15.17
2018-06-15T01:00:17.681Z,16.37
2018-06-15T01:02:47.079Z,15.23
2018-06-15T01:05:16.557Z,16.50
2018-06-15T01:07:46.863Z,15.80
2018-06-15T01:10:39.080Z,17.97
2018-06-15T01:16:17.784Z,12.00
2018-06-15T01:19:01.272Z,16.67
2018-06-15T01:24:44.388Z,14.07
2018-06-15T01:27:13.739Z,19.17
2018-06-15T01:29:43.092Z,15.00
2018-06-15T01:32:12.653Z,17.00
2018-06-15T01:34:42.059Z,21.23
2018-06-15T01:37:12.321Z,20.87
2018-06-15T01:39:46.308Z,19.70
2018-06-15T01:42:15.906Z,20.83
2018-06-15T01:44:45.534Z,16.73
2018-06-15T01:47:15.075Z,19.67
2018-06-15T01:49:44.574Z,21.27
2018-06-15T01:52:14.231Z,15.50
2018-06-15T01:54:44.347Z,15.53
2018-06-15T01:57:14.172Z,20.60
2018-06-15T01:59:43.989Z,22.33
2018-06-15T02:02:13.800Z,20.00
2018-06-15T02:04:45.359Z,24.40
2018-06-15T02:07:16.614Z,17.87
2018-06-15T02:09:48.900Z,20.17
2018-06-15T02:12:29.510Z,17.47
2018-06-15T02:14:59.739Z,23.00
2018-06-15T02:17:29.912Z,20.27
2018-06-15T02:20:04.996Z,16.30
2018-06-15T02:25:31.847Z,18.97
2018-06-15T02:28:01.664Z,21.87
2018-06-15T02:30:31.172Z,21.60
2018-06-15T02:33:02.915Z,21.93
2018-06-15T02:35:32.431Z,19.87
2018-06-15T02:38:02.000Z,21.83
2018-06-15T02:40:31.805Z,20.47
2018-06-15T02:43:01.304Z,20.67
2018-06-15T02:45:31.091Z,17.87
2018-06-15T02:48:02.772Z,18.50
2018-06-15T02:50:32.600Z,20.63
2018-06-15T02:53:02.661Z,20.07
2018-06-15T02:55:32.526Z,17.93
2018-06-15T02:58:02.010Z,25.13
2018-06-15T03:00:31.419Z,19.67
2018-06-15T03:04:33.617Z,22.27
2018-06-15T03:07:05.791Z,20.50
2018-06-15T03:09:36.765Z,21.23
2018-06-15T03:17:26.031Z,19.57
2018-06-15T03:29:11.311Z,22.40
2018-06-15T03:31:40.880Z,25.83
2018-06-15T03:34:10.209Z,22.57
2018-06-15T03:36:39.490Z,19.07
2018-06-15T03:39:10.980Z,14.53
2018-06-15T03:41:40.756Z,25.03
2018-06-15T03:44:10.008Z,23.60
2018-06-15T03:46:47.956Z,18.97
2018-06-15T03:49:17.243Z,23.20
2018-06-15T03:54:55.635Z,17.93
2018-06-15T03:57:25.193Z,19.27
2018-06-15T03:59:54.308Z,21.67
2018-06-15T04:02:23.390Z,22.17
2018-06-15T04:04:52.704Z,25.33
2018-06-15T04:07:22.641Z,21.80
2018-06-15T04:09:51.740Z,24.43
2018-06-15T04:12:21.058Z,23.80
2018-06-15T04:14:50.349Z,22.27
2018-06-15T04:17:19.662Z,21.40
2018-06-15T04:19:49.553Z,21.12
2018-06-15T04:22:19.209Z,19.62
2018-06-15T04:24:48.526Z,21.07
2018-06-15T04:27:17.737Z,22.25
2018-06-15T04:29:46.905Z,22.32
2018-06-15T04:32:16.198Z,28.32
2018-06-15T04:34:45.291Z,22.70
2018-06-15T04:37:14.438Z,23.92
2018-06-15T04:39:45.012Z,21.17
2018-06-15T04:42:14.098Z,24.93
2018-06-15T04:45:46.217Z,19.70
2018-06-15T04:48:15.136Z,23.10
2018-06-15T04:50:44.262Z,21.70
2018-06-15T04:53:13.745Z,17.77
2018-06-15T04:55:42.916Z,21.00
2018-06-15T04:58:12.135Z,21.20
2018-06-15T05:00:41.411Z,21.50
2018-06-15T05:03:14.068Z,19.10
2018-06-15T05:05:44.642Z,13.53
2018-06-15T05:08:13.662Z,16.67
2018-06-15T05:10:42.830Z,15.98
2018-06-15T05:13:12.288Z,13.00
2018-06-15T05:15:41.553Z,14.63
2018-06-15T05:18:10.680Z,11.08
2018-06-15T05:20:39.861Z,14.00
2018-06-15T05:23:09.042Z,10.75
2018-06-15T05:25:38.150Z,9.40
2018-06-15T05:28:07.318Z,9.63
2018-06-15T05:30:36.261Z,13.08
2018-06-15T05:33:05.336Z,18.37
2018-06-15T05:35:34.254Z,8.40
2018-06-15T05:38:03.135Z,9.50
2018-06-15T05:40:32.191Z,12.30
2018-06-15T05:43:01.407Z,9.85
2018-06-15T05:45:30.561Z,12.53
2018-06-15T05:47:59.646Z,13.43
2018-06-15T05:50:28.804Z,12.45
2018-06-15T05:52:57.742Z,11.97
2018-06-15T05:55:26.953Z,7.87
2018-06-15T05:57:56.803Z,15.20
2018-06-15T06:00:25.888Z,11.22
2018-06-15T06:02:54.928Z,10.38
2018-06-15T06:05:24.025Z,9.33
2018-06-15T06:07:53.311Z,10.88
2018-06-15T06:10:22.500Z,8.25
2018-06-15T06:12:51.575Z,18.25
2018-06-15T06:15:20.697Z,9.73
2018-06-15T06:17:49.791Z,10.50
2018-06-15T06:20:18.958Z,14.38
2018-06-15T06:22:48.036Z,13.13
2018-06-15T06:25:17.043Z,18.20
2018-06-15T06:27:46.052Z,10.78
2018-06-15T06:30:15.179Z,19.57
2018-06-15T06:32:44.401Z,18.92
2018-06-15T06:35:13.438Z,14.95
2018-06-15T06:37:42.671Z,16.27
2018-06-15T06:40:11.729Z,46.53
2018-06-15T06:42:41.031Z,16.42
2018-06-15T06:45:10.193Z,14.65
2018-06-15T06:47:39.220Z,16.27
2018-06-15T06:50:08.369Z,12.18
2018-06-15T06:52:37.456Z,13.88
2018-06-15T06:55:06.594Z,17.60
2018-06-15T06:57:35.707Z,16.67
2018-06-15T07:00:05.120Z,18.35
2018-06-15T07:02:34.259Z,18.07
2018-06-15T07:05:03.385Z,19.57
2018-06-15T07:07:32.535Z,13.98
2018-06-15T07:10:01.557Z,15.08
2018-06-15T07:12:30.692Z,13.45
2018-06-15T07:14:59.816Z,15.53
2018-06-15T07:17:29.000Z,15.00
2018-06-15T07:19:58.088Z,12.20
2018-06-15T07:22:27.244Z,16.95
2018-06-15T07:24:56.296Z,15.75
2018-06-15T07:27:25.379Z,14.40
2018-06-15T07:29:54.558Z,11.35
2018-06-15T07:32:23.690Z,14.98
2018-06-15T07:34:52.908Z,17.45
2018-06-15T07:37:22.128Z,19.90
2018-06-15T07:39:51.302Z,13.50
2018-06-15T07:42:20.876Z,16.85
2018-06-15T07:44:49.952Z,15.45
2018-06-15T07:47:19.100Z,13.62
2018-06-15T07:49:48.456Z,13.43
2018-06-15T07:52:17.929Z,12.75
2018-06-15T11:46:24.284Z,7.05
2018-06-15T11:49:10.723Z,9.10
2018-06-15T11:51:41.994Z,10.25
2018-06-15T11:54:11.365Z,7.00
2018-06-15T11:56:40.711Z,10.72
2018-06-15T11:59:10.382Z,9.60
2018-06-15T12:01:39.851Z,8.98
2018-06-15T12:04:09.225Z,7.92
2018-06-15T12:06:39.136Z,10.53
2018-06-15T12:09:16.505Z,13.35
2018-06-15T12:11:47.234Z,10.30
2018-06-15T12:14:16.488Z,7.53
2018-06-15T12:16:45.799Z,6.42
2018-06-15T12:19:15.324Z,6.58
2018-06-15T13:29:25.690Z,13.05
2018-06-15T13:31:55.042Z,16.17
2018-06-15T13:34:24.267Z,16.32
2018-06-15T13:36:53.823Z,10.75
2018-06-15T13:39:23.332Z,8.35
2018-06-15T13:47:37.789Z,10.70
2018-06-15T13:57:33.436Z,12.97
2018-06-15T15:00:38.154Z,13.20
2018-06-15T15:25:06.416Z,19.60
2018-06-15T15:27:35.734Z,19.43
2018-06-15T15:30:04.974Z,14.10
2018-06-15T15:32:34.201Z,15.37
2018-06-15T15:35:03.204Z,16.27
2018-06-15T15:37:32.362Z,18.13
2018-06-15T15:40:01.384Z,21.13
2018-06-15T15:42:30.401Z,20.17
2018-06-15T15:44:59.408Z,20.30
2018-06-15T15:47:28.840Z,17.77
2018-06-15T15:49:58.066Z,16.90
2018-06-15T15:52:27.198Z,17.27
2018-06-15T15:54:56.672Z,15.87
2018-06-15T15:57:25.677Z,13.80
2018-06-15T15:59:54.783Z,12.43
2018-06-15T16:02:24.177Z,15.60
2018-06-15T16:04:53.145Z,14.77
2018-06-15T16:07:22.252Z,12.30
2018-06-15T16:09:52.066Z,12.80
2018-06-15T16:12:21.279Z,17.83
2018-06-15T16:14:58.136Z,16.57
2018-06-15T16:17:27.371Z,15.50
2018-06-15T16:19:56.638Z,18.47
2018-06-15T16:22:26.268Z,19.77
2018-06-15T16:24:55.408Z,30.97
2018-06-15T16:27:24.480Z,28.67
2018-06-15T16:29:53.559Z,21.03
2018-06-15T16:32:22.657Z,17.93
2018-06-15T16:34:51.639Z,25.67
2018-06-15T16:37:21.322Z,28.77
2018-06-15T16:39:50.451Z,40.30
2018-06-15T16:42:19.637Z,30.93
2018-06-15T16:44:49.108Z,24.03
2018-06-15T16:47:18.485Z,18.20
2018-06-15T16:49:47.536Z,19.93
2018-06-15T16:52:17.056Z,19.73
2018-06-15T16:54:47.160Z,16.47
2018-06-15T16:57:17.651Z,16.53
2018-06-15T16:59:46.760Z,22.00
2018-06-15T17:02:15.780Z,18.50
2018-06-15T17:04:44.980Z,17.30
2018-06-15T17:07:14.201Z,19.70
2018-06-15T17:09:43.316Z,19.07
2018-06-15T17:12:12.487Z,19.73
2018-06-15T17:14:41.564Z,20.77
2018-06-15T17:17:10.749Z,14.90
2018-06-15T17:19:40.009Z,14.73
2018-06-15T17:22:09.214Z,15.83
2018-06-15T17:24:38.239Z,15.57
2018-06-15T17:27:07.557Z,14.37
2018-06-15T17:29:36.696Z,18.63
2018-06-15T17:32:05.792Z,33.80
2018-06-15T17:34:35.038Z,45.80
2018-06-15T17:37:04.150Z,21.47
2018-06-15T17:39:33.325Z,23.83
2018-06-15T17:42:02.451Z,23.43
2018-06-15T17:44:31.689Z,23.97
2018-06-15T17:47:00.643Z,25.57
2018-06-15T17:49:29.907Z,24.63
2018-06-15T17:51:59.213Z,22.37
2018-06-15T17:54:28.455Z,24.90
2018-06-15T17:56:57.607Z,20.77
2018-06-15T17:59:26.671Z,20.20
2018-06-15T18:01:55.815Z,23.80
2018-06-15T18:04:25.527Z,20.60
2018-06-15T18:06:54.620Z,22.77
2018-06-15T18:09:23.841Z,25.20
2018-06-15T18:11:53.024Z,70.57
2018-06-15T18:14:22.147Z,29.83
2018-06-15T18:16:51.221Z,25.77
2018-06-15T18:19:20.396Z,30.03
2018-06-15T18:21:49.509Z,27.97
2018-06-15T18:24:18.626Z,25.33
2018-06-15T18:26:47.778Z,27.97
2018-06-15T18:29:16.874Z,29.37
2018-06-15T18:31:45.991Z,28.73
2018-06-15T18:34:16.155Z,25.83
2018-06-15T18:36:45.252Z,27.47
2018-06-15T18:39:15.283Z,28.77
2018-06-15T18:41:45.064Z,28.07
2018-06-15T18:44:14.201Z,26.30
2018-06-15T18:46:43.245Z,26.43
2018-06-15T18:49:12.403Z,26.67
2018-06-15T18:51:41.444Z,28.63
2018-06-15T18:55:13.585Z,28.03
2018-06-15T18:57:48.679Z,33.40
2018-06-15T19:00:21.885Z,28.40
2018-06-15T19:02:51.019Z,28.67
2018-06-15T19:05:21.044Z,25.47
2018-06-15T19:07:50.269Z,26.50
2018-06-15T19:10:20.040Z,28.53
2018-06-15T19:12:50.416Z,25.07
2018-06-15T19:15:19.477Z,27.43
2018-06-15T19:17:48.556Z,24.63
2018-06-15T19:20:17.809Z,23.80
2018-06-15T19:22:47.058Z,30.87
2018-06-15T19:25:16.120Z,29.83
2018-06-15T19:27:45.159Z,32.13
2018-06-15T19:30:14.298Z,26.63
2018-06-15T19:32:43.341Z,32.07
2018-06-15T19:35:12.541Z,24.80
2018-06-15T19:37:41.727Z,22.70
2018-06-15T19:40:10.917Z,25.83
2018-06-15T19:42:40.097Z,27.30
2018-06-15T19:46:38.389Z,25.97
2018-06-15T19:49:07.428Z,27.07
2018-06-15T19:51:36.679Z,26.47
2018-06-15T19:54:05.855Z,26.97
2018-06-15T19:56:34.877Z,26.27
2018-06-15T19:59:04.252Z,29.60
2018-06-15T20:01:33.621Z,29.53
2018-06-15T20:04:02.809Z,28.77
2018-06-15T20:06:32.217Z,25.13
2018-06-15T20:09:01.362Z,28.67
2018-06-15T20:11:30.424Z,27.50
2018-06-15T20:13:59.921Z,26.50
2018-06-15T20:16:29.354Z,27.80
2018-06-15T20:18:58.615Z,25.40
2018-06-15T20:21:27.634Z,24.83
2018-06-15T20:23:56.731Z,26.43
2018-06-15T20:26:25.804Z,23.33
2018-06-15T20:28:54.849Z,25.67
2018-06-15T20:31:23.945Z,24.23
2018-06-15T20:33:53.410Z,30.43
2018-06-15T20:36:22.705Z,21.40
2018-06-15T20:38:51.834Z,23.17
2018-06-15T20:41:20.946Z,23.10
2018-06-15T20:45:19.652Z,23.63
2018-06-15T20:47:48.754Z,22.83
2018-06-15T20:50:17.802Z,20.37
2018-06-15T20:52:46.831Z,18.97
2018-06-15T20:55:15.826Z,21.00
2018-06-15T20:57:44.775Z,19.07
2018-06-15T21:00:13.973Z,23.77
2018-06-15T21:02:43.000Z,20.50
2018-06-15T21:05:12.056Z,20.07
2018-06-15T21:07:42.030Z,21.20
2018-06-15T21:10:11.247Z,20.20
2018-06-15T21:12:40.297Z,22.23
2018-06-15T21:15:09.977Z,21.40
2018-06-15T21:17:38.878Z,25.53
2018-06-15T21:20:08.146Z,28.03
2018-06-15T21:22:37.141Z,22.13
2018-06-15T21:25:06.344Z,23.73
2018-06-15T21:27:35.314Z,25.20
2018-06-15T21:30:04.529Z,23.03
2018-06-15T21:32:33.702Z,23.30
2018-06-15T21:35:02.849Z,23.23
2018-06-15T21:37:32.102Z,27.07
2018-06-15T21:40:01.221Z,23.93
2018-06-15T21:42:30.278Z,25.27
2018-06-15T21:44:59.494Z,27.30
2018-06-15T21:47:28.520Z,23.43
2018-06-15T21:49:57.648Z,27.87
2018-06-15T21:52:26.688Z,21.00
2018-06-15T21:54:55.819Z,27.37
2018-06-15T21:57:25.355Z,28.07
2018-06-15T21:59:54.408Z,23.03
2018-06-15T22:02:23.393Z,27.27
2018-06-15T22:04:52.431Z,24.97
2018-06-15T22:07:21.598Z,28.90
2018-06-15T22:09:50.705Z,23.33
2018-06-15T22:12:19.875Z,25.13
2018-06-15T22:14:48.963Z,25.80
2018-06-15T22:17:18.969Z,29.43
2018-06-15T22:19:48.922Z,25.73
2018-06-15T22:22:19.187Z,20.13
2018-06-15T22:24:51.946Z,18.90
2018-06-15T22:27:21.647Z,18.73
2018-06-15T22:29:53.107Z,19.53
2018-06-15T22:32:22.319Z,17.37
2018-06-15T22:34:51.319Z,20.57
2018-06-15T22:37:20.449Z,19.87
2018-06-15T22:39:55.206Z,17.80
2018-06-15T22:42:25.110Z,18.37
2018-06-15T22:44:54.452Z,17.17
2018-06-15T22:47:23.558Z,19.50
2018-06-15T22:49:52.590Z,17.53
2018-06-15T22:52:21.705Z,17.20
2018-06-15T22:54:51.901Z,17.10
2018-06-15T22:57:20.877Z,24.33
2018-06-15T22:59:49.997Z,18.23
2018-06-15T23:02:19.141Z,18.27
2018-06-15T23:04:48.499Z,17.93
2018-06-15T23:07:17.600Z,23.33
2018-06-15T23:09:47.031Z,18.57
2018-06-15T23:12:16.107Z,18.00
2018-06-15T23:14:45.175Z,17.20
2018-06-15T23:17:14.308Z,17.17
2018-06-15T23:19:43.327Z,15.03
2018-06-15T23:22:12.374Z,18.10
2018-06-15T23:24:41.367Z,14.03
2018-06-15T23:27:10.467Z,18.90
2018-06-15T23:29:39.418Z,14.90
2018-06-15T23:32:08.456Z,17.60
2018-06-15T23:34:37.636Z,20.47
2018-06-15T23:37:06.481Z,15.63
2018-06-15T23:39:35.525Z,21.20
2018-06-15T23:42:04.653Z,16.60
2018-06-15T23:44:33.724Z,17.77
2018-06-15T23:47:02.815Z,19.67
2018-06-15T23:49:31.777Z,18.10
2018-06-15T23:52:00.723Z,16.83
2018-06-15T23:54:29.885Z,14.90
2018-06-15T23:56:59.045Z,19.53
2018-06-15T23:59:28.009Z,16.30
